Colon, North Carolina
Current Conditions -  °F | °C
As of 11:35 PM on Friday 24 Oct 2014 (Local Time) from KTTA Reporting Station
Clear Clear  
Wind Chill: 49°   Ceiling: Unl
Heat Index: 49°   Visibility: 10mi
Dew Point: 49°   Wind: 3mph
Humidity: 100%   Direction: 200°SSW
Pressure: 30.01"   Gusts: NA
Location:  35.493°N, 79.1765°W
Report Text: KTTA 250335Z AUTO 20003KT 10SM CLR 09/09 A3001 RMK AO2 T00930093
Loading
Personal Weather Stations






























Interactive Weather Map
Tropical Storm Tracking
New forecast layout! Learn more

10-Day Weather Forecast

Advertisements
Track Severe Weather on mobile